Terminal Aerodrome Forecast
Issued by NWS Jacksonville, FL

Home | Current Version | Previous Version | Text Only | Print | Product List | Glossary On
Versions: 1 2 3 4 5 6 7 8 9 10 11 12 13
811
FTUS42 KJAX 210520
TAFGNV
TAF
KGNV 210520Z 2106/2206 VRB02KT P6SM BKN100 OVC200
     FM211600 09006KT P6SM FEW040=

USA.gov is the U.S. government's official web portal to all federal, state and local government web resources and services.